Terminal Aerodrome Forecast
Issued by NWS

Home | Current Version | Previous Version | Graphics & Text | Print | Product List | Glossary On
Versions: 1 2 3 4 5 6 7 8 9 10 11 12 13 14 15
177
FTUS43 KICT 240520
TAFSLN
TAF
KSLN 240520Z 2406/2506 16009KT P6SM SCT250 WS015/19040KT
     FM240900 17014KT P6SM FEW250 WS015/19050KT
     FM241400 18027G40KT P6SM FEW250
     FM242000 19020G28KT P6SM FEW250
     FM250000 18014KT P6SM SCT250
     FM250300 17009KT P6SM SCT200 WS015/19040KT=

USA.gov is the U.S. government's official web portal to all federal, state and local government web resources and services.